Greenville Airport (GRE)
Greenville, IL
Field Elevation: 540
Lat: 38°50.00N  Long: 89°22.00W
CTAF/Unicom Freq: 123.0500
   
     For Weather-by-Phone, call (618) 664-1939
Weather Advisories
2019-05-22   14:52 Z
Altimeter 29.90" Hg
Wind 160° @ 12 KT
Gusts 19 KT
Visibility 10 SM
Temperature 21° C (70° F)
Dewpoint 18° C (64° F)
Relative Humidity 82%
Density Altitude --
Condensation Altitude 1,900 feet
Wind and Runways
Indicated Runway = 18
Headwind = 11 kt
Crosswind = 4 kt
History
 
 
 
More Info
 
NOAA Forecast
 
Airport IQ 5010
(FLV) Sherman Airfield
(VLA) Vandalia
 
about Belfort Instrument
 
FAA Disclaimer: The data displayed is for advisory purposes only and is not to be used for flight planning or operations. For official data, please call (618) 664-1939 to hear the current automated AWOS voice message.
  METAR GRE 221452Z AUTO 16012G19KT 10 SM 21/18 A2990